Terminal Aerodrome Forecast
Issued by NWS Portland, ME

Home | Current Version | Previous Version | Text Only | Print | Product List | Glossary On
Versions: 1 2 3 4 5 6 7 8 9 10 11 12 13 14 15 16 17 18 19 20 21
343
FTUS41 KGYX 250842 AAA
TAFPWM
TAF AMD
KPWM 250842Z 2509/2606 27007KT P6SM FEW100
     FM251600 22011G18KT P6SM BKN100 BKN250=

USA.gov is the U.S. government's official web portal to all federal, state and local government web resources and services.